Time;durP1;ratioP1;P1;durP2;ratioP2;P2;SDS_P1;SDS_P2;PMS_P1;PMS_P2;Temp;Humidity;BMP_temperature;BMP_pressure;BME280_temperature;BME280_humidity;BME280_pressure;Samples;Min_cycle;Max_cycle;Signal;HPM_P1;HPM_P2
2023/05/14 00:00:41;;;;;;;1.80;1.70;;;;;;;13.47;100.00;100737.47;5072980;28;20205;-77
2023/05/14 00:03:08;;;;;;;1.52;1.42;;;;;;;13.46;100.00;100734.84;5073317;28;20199;-77
2023/05/14 00:05:36;;;;;;;2.58;2.13;;;;;;;13.59;100.00;100722.00;5022049;28;20207;-77
2023/05/14 00:08:03;;;;;;;1.65;1.55;;;;;;;13.49;100.00;100733.16;5072875;28;20198;-77
2023/05/14 00:10:30;;;;;;;1.50;1.40;;;;;;;13.53;100.00;100728.84;5073180;28;20203;-77
2023/05/14 00:12:57;;;;;;;1.60;1.50;;;;;;;13.39;100.00;100711.31;5072997;28;20205;-77
2023/05/14 00:15:24;;;;;;;1.40;1.30;;;;;;;13.54;100.00;100734.09;5072729;28;20191;-77
2023/05/14 00:17:51;;;;;;;1.88;1.77;;;;;;;13.40;100.00;100727.81;5072707;28;20199;-77
2023/05/14 00:20:17;;;;;;;1.55;1.45;;;;;;;13.57;100.00;100741.06;5072498;28;20202;-77
2023/05/14 00:22:45;;;;;;;1.50;1.40;;;;;;;13.70;100.00;100737.75;5072411;28;20210;-76
2023/05/14 00:25:12;;;;;;;1.40;1.30;;;;;;;13.49;100.00;100721.84;5071152;28;20190;-77
2023/05/14 00:27:39;;;;;;;1.10;1.10;;;;;;;13.52;100.00;100729.75;5073294;28;20206;-77
2023/05/14 00:30:07;;;;;;;1.80;1.70;;;;;;;13.49;100.00;100722.72;5073043;28;20211;-77
2023/05/14 00:32:34;;;;;;;1.98;1.77;;;;;;;13.41;100.00;100709.59;5072957;28;20207;-77
2023/05/14 00:35:01;;;;;;;1.42;1.33;;;;;;;13.53;100.00;100719.31;5072909;28;20198;-77
2023/05/14 00:37:28;;;;;;;1.58;1.48;;;;;;;13.40;100.00;100713.09;5072733;28;20219;-77
2023/05/14 00:39:57;;;;;;;1.35;1.25;;;;;;;13.57;100.00;100723.72;5072528;28;20585;-78
2023/05/14 00:42:23;;;;;;;2.58;1.75;;;;;;;13.43;100.00;100714.84;5072563;28;20324;-77
2023/05/14 00:44:50;;;;;;;18.42;3.63;;;;;;;13.04;100.00;100649.16;5072058;28;20195;-77
2023/05/14 00:47:17;;;;;;;2.72;2.53;;;;;;;13.26;100.00;100727.63;5072639;28;20207;-77
2023/05/14 00:49:45;;;;;;;1.23;1.13;;;;;;;13.08;100.00;100714.31;5072554;28;20564;-76
2023/05/14 00:52:12;;;;;;;3.33;2.65;;;;;;;13.14;100.00;100708.34;5072433;28;20203;-77
2023/05/14 00:54:40;;;;;;;1.67;1.58;;;;;;;13.09;100.00;100715.19;5072429;28;20205;-77
2023/05/14 00:57:08;;;;;;;1.10;1.10;;;;;;;13.10;100.00;100702.22;5072131;28;20334;-77
2023/05/14 00:59:35;;;;;;;3.00;2.80;;;;;;;12.89;100.00;100688.84;5072231;28;20195;-78
2023/05/14 01:02:02;;;;;;;1.60;1.50;;;;;;;13.13;100.00;100699.66;5072166;28;20202;-77
2023/05/14 01:04:29;;;;;;;1.42;1.33;;;;;;;13.22;100.00;100705.00;5072146;28;20203;-76
2023/05/14 01:07:07;;;;;;;1.58;1.48;;;;;;;13.31;100.00;100699.03;5071947;28;20662;-76
2023/05/14 01:09:42;;;;;;;1.58;1.48;;;;;;;13.26;100.00;100690.31;5071383;28;20539;-77
2023/05/14 01:12:19;;;;;;;1.60;1.50;;;;;;;13.44;100.00;100700.09;5071122;28;20561;-78
2023/05/14 01:14:54;;;;;;;5.03;3.60;;;;;;;13.54;100.00;100701.97;5071219;28;20734;-77
2023/05/14 01:17:22;;;;;;;1.48;1.38;;;;;;;13.54;100.00;100704.56;5071052;28;20222;-77
2023/05/14 01:19:51;;;;;;;1.70;1.60;;;;;;;13.23;100.00;100649.47;5071764;28;20222;-77
2023/05/14 01:22:19;;;;;;;1.63;1.45;;;;;;;13.61;100.00;100707.28;5071702;28;20198;-77
2023/05/14 01:24:46;;;;;;;1.83;1.73;;;;;;;13.26;100.00;100696.38;5071050;28;20199;-77
2023/05/14 01:27:18;;;;;;;1.25;1.17;;;;;;;13.26;100.00;100695.50;5071543;28;20195;-77
2023/05/14 01:29:53;;;;;;;1.60;1.50;;;;;;;13.22;100.00;100678.97;5071101;28;20294;-77
2023/05/14 01:32:23;;;;;;;1.65;1.42;;;;;;;13.34;100.00;100699.94;5071320;28;20214;-77
2023/05/14 01:34:52;;;;;;;2.45;2.20;;;;;;;13.33;100.00;100686.94;5071006;28;20195;-77
2023/05/14 01:37:21;;;;;;;1.35;1.25;;;;;;;13.28;100.00;100692.06;5070881;28;20257;-77
2023/05/14 01:39:49;;;;;;;1.65;1.50;;;;;;;13.25;100.00;100710.25;5071225;28;20235;-77
2023/05/14 01:42:16;;;;;;;1.60;1.50;;;;;;;13.35;100.00;100709.53;5070982;28;20202;-77
2023/05/14 01:44:44;;;;;;;1.40;1.30;;;;;;;13.44;100.00;100705.31;5019447;28;20194;-77
2023/05/14 01:47:10;;;;;;;1.95;1.83;;;;;;;13.51;100.00;100712.34;5070959;28;20304;-79
2023/05/14 01:49:37;;;;;;;1.38;1.27;;;;;;;13.53;100.00;100710.63;5070777;28;20199;-76
2023/05/14 01:52:04;;;;;;;1.65;1.55;;;;;;;13.66;100.00;100721.22;5071256;28;20276;-79
2023/05/14 01:54:32;;;;;;;1.40;1.30;;;;;;;13.73;100.00;100714.38;5070285;28;20199;-76
2023/05/14 01:56:59;;;;;;;1.73;1.40;;;;;;;13.75;100.00;100718.75;5070136;28;20283;-77
2023/05/14 01:59:28;;;;;;;2.05;1.95;;;;;;;13.77;100.00;100706.59;5019327;28;20210;-78
2023/05/14 02:01:55;;;;;;;1.52;1.42;;;;;;;13.69;100.00;100704.75;5070883;28;20614;-77
2023/05/14 02:04:22;;;;;;;1.90;1.42;;;;;;;13.56;100.00;100701.13;5035209;28;20199;-77
2023/05/14 02:06:48;;;;;;;1.40;1.30;;;;;;;13.69;100.00;100720.41;5071049;28;20260;-77
2023/05/14 02:09:15;;;;;;;1.50;1.40;;;;;;;13.48;100.00;100717.50;5070089;28;20198;-77
2023/05/14 02:11:43;;;;;;;1.40;1.30;;;;;;;13.13;100.00;100616.34;5071312;28;20206;-77
2023/05/14 02:14:10;;;;;;;1.50;1.40;;;;;;;13.73;100.00;100703.94;5070823;28;20627;-77
2023/05/14 02:16:37;;;;;;;1.40;1.30;;;;;;;13.64;100.00;100709.03;5069741;28;20616;-77
2023/05/14 02:19:04;;;;;;;1.65;1.48;;;;;;;13.73;100.00;100714.38;5070451;28;20197;-76
2023/05/14 02:21:30;;;;;;;1.40;1.30;;;;;;;13.68;100.00;100705.63;5070428;28;20264;-77
2023/05/14 02:23:57;;;;;;;1.50;1.40;;;;;;;13.69;100.00;100712.59;5070145;28;20203;-78
2023/05/14 02:26:24;;;;;;;1.30;1.20;;;;;;;13.23;100.00;100639.06;5070232;28;20206;-77
2023/05/14 02:28:52;;;;;;;1.55;1.45;;;;;;;13.69;100.00;100709.97;5070309;28;20665;-77
2023/05/14 02:31:19;;;;;;;1.67;1.58;;;;;;;13.74;100.00;100706.56;5070799;28;20214;-78
2023/05/14 02:33:46;;;;;;;1.50;1.40;;;;;;;13.83;100.00;100703.19;5071002;28;20210;-78
2023/05/14 02:36:12;;;;;;;1.48;1.38;;;;;;;13.86;100.00;100700.63;5070901;28;20203;-76
2023/05/14 02:38:39;;;;;;;1.40;1.30;;;;;;;13.96;100.00;100704.19;5070444;28;20206;-76
2023/05/14 02:41:06;;;;;;;1.52;1.42;;;;;;;13.59;100.00;100648.19;5070792;28;20226;-77
2023/05/14 02:43:33;;;;;;;1.48;1.38;;;;;;;13.78;100.00;100697.91;5070987;28;20203;-76
2023/05/14 02:46:01;;;;;;;1.77;1.50;;;;;;;13.76;100.00;100697.03;5070601;28;20207;-76
2023/05/14 02:48:28;;;;;;;1.55;1.45;;;;;;;13.48;100.00;100670.63;5035381;28;20210;-76
2023/05/14 02:50:55;;;;;;;1.40;1.30;;;;;;;13.60;100.00;100712.44;5070696;28;20289;-77
2023/05/14 02:53:21;;;;;;;1.40;1.30;;;;;;;13.40;100.00;100697.44;5064424;28;20206;-76
2023/05/14 02:55:48;;;;;;;1.63;1.52;;;;;;;13.52;100.00;100724.53;5070554;28;20202;-77
2023/05/14 02:58:15;;;;;;;1.50;1.40;;;;;;;13.12;100.00;100699.66;5070455;28;20219;-77
2023/05/14 03:00:42;;;;;;;1.55;1.45;;;;;;;13.13;100.00;100714.41;5070731;28;20320;-77
2023/05/14 03:03:13;;;;;;;1.65;1.50;;;;;;;13.22;100.00;100706.72;5070677;28;20866;-77
2023/05/14 03:05:40;;;;;;;1.92;1.73;;;;;;;13.15;100.00;100708.38;5070592;28;20203;-77
2023/05/14 03:08:06;;;;;;;1.63;1.52;;;;;;;13.18;100.00;100700.59;5072566;28;20199;-76
2023/05/14 03:10:33;;;;;;;1.48;1.38;;;;;;;13.18;100.00;100708.41;5074457;28;20206;-76
2023/05/14 03:13:00;;;;;;;1.40;1.30;;;;;;;13.29;100.00;100711.19;5074406;28;20199;-76
2023/05/14 03:15:27;;;;;;;1.35;1.25;;;;;;;13.34;100.00;100688.69;5074342;28;20199;-76
2023/05/14 03:17:53;;;;;;;1.20;1.10;;;;;;;13.40;100.00;100684.44;5038950;28;20218;-77
2023/05/14 03:20:24;;;;;;;1.20;1.10;;;;;;;13.72;100.00;100705.69;5074039;28;20210;-77
2023/05/14 03:22:51;;;;;;;1.88;1.77;;;;;;;13.50;100.00;100674.09;5074346;28;20293;-76
2023/05/14 03:25:18;;;;;;;1.50;1.40;;;;;;;13.75;100.00;100707.44;5073425;28;20661;-77
2023/05/14 03:27:45;;;;;;;0.95;0.95;;;;;;;13.94;100.00;100703.31;5073789;28;20571;-77
2023/05/14 03:30:12;;;;;;;1.13;1.08;;;;;;;14.11;100.00;100714.81;5073719;28;20206;-77
2023/05/14 03:32:40;;;;;;;1.40;1.30;;;;;;;14.18;100.00;100714.88;5073554;28;20225;-77
2023/05/14 03:35:07;;;;;;;1.50;1.40;;;;;;;14.22;100.00;100721.00;5073435;28;20274;-78
2023/05/14 03:37:35;;;;;;;1.40;1.30;;;;;;;14.29;100.00;100723.72;5073607;28;20587;-77
2023/05/14 03:40:02;;;;;;;1.40;1.30;;;;;;;14.34;100.00;100735.06;5073250;28;20235;-77
2023/05/14 03:42:29;;;;;;;1.50;1.40;;;;;;;14.35;100.00;100731.63;5073621;28;20252;-77
2023/05/14 03:44:56;;;;;;;1.50;1.40;;;;;;;14.31;100.00;100732.41;5073334;28;20210;-76
2023/05/14 03:47:23;;;;;;;1.30;1.20;;;;;;;14.49;100.00;100733.47;5073932;28;20313;-77
2023/05/14 03:49:49;;;;;;;1.20;1.10;;;;;;;14.59;100.00;100730.97;5073417;28;20206;-77
2023/05/14 03:52:16;;;;;;;1.30;1.20;;;;;;;14.71;100.00;100740.66;5073728;28;20195;-77
2023/05/14 03:54:44;;;;;;;1.35;1.25;;;;;;;14.96;100.00;100740.00;5073358;28;20195;-77
2023/05/14 03:57:11;;;;;;;1.30;1.23;;;;;;;14.81;100.00;100745.09;5073299;28;20316;-77
2023/05/14 03:59:38;;;;;;;1.25;1.15;;;;;;;14.97;100.00;100738.25;5073241;28;20545;-77
2023/05/14 04:02:05;;;;;;;2.42;2.22;;;;;;;15.07;100.00;100707.00;5073234;28;20580;-76
2023/05/14 04:04:31;;;;;;;1.35;1.25;;;;;;;15.48;100.00;100727.28;5072977;28;20662;-77
2023/05/14 04:06:58;;;;;;;1.38;1.27;;;;;;;15.57;100.00;100730.84;5073205;28;20661;-77
2023/05/14 04:09:25;;;;;;;1.20;1.10;;;;;;;15.61;100.00;100718.66;5073044;28;20626;-77
2023/05/14 04:11:53;;;;;;;1.50;1.40;;;;;;;15.80;100.00;100728.34;5072931;28;20601;-76
2023/05/14 04:14:20;;;;;;;1.05;1.00;;;;;;;15.75;100.00;100720.47;5037679;28;20202;-77
2023/05/14 04:16:46;;;;;;;1.17;1.13;;;;;;;15.78;100.00;100724.84;5021250;28;20568;-78
2023/05/14 04:19:13;;;;;;;1.30;1.20;;;;;;;15.37;100.00;100722.00;5071826;28;20686;-77
2023/05/14 04:21:40;;;;;;;1.67;1.58;;;;;;;15.51;100.00;100722.09;5021648;28;20219;-77
2023/05/14 04:24:08;;;;;;;2.10;2.00;;;;;;;15.88;100.00;100726.63;5021160;28;20202;-77
2023/05/14 04:26:35;;;;;;;1.33;1.23;;;;;;;16.07;100.00;100728.44;5072760;28;20199;-77
2023/05/14 04:29:03;;;;;;;1.33;1.23;;;;;;;17.00;100.00;100718.09;5072555;28;20210;-81
2023/05/14 04:31:30;;;;;;;1.02;1.02;;;;;;;17.34;93.83;100723.28;5072933;28;20199;-76
2023/05/14 04:33:57;;;;;;;1.30;1.20;;;;;;;17.31;92.36;100728.53;5072825;28;20709;-76
2023/05/14 04:36:24;;;;;;;1.42;1.33;;;;;;;17.84;87.33;100727.50;5072539;28;20195;-77
2023/05/14 04:38:50;;;;;;;1.30;1.20;;;;;;;18.29;82.36;100708.91;5072172;28;20713;-76
2023/05/14 04:41:17;;;;;;;1.45;1.35;;;;;;;18.70;79.19;100734.03;5070859;28;20655;-78
2023/05/14 04:43:45;;;;;;;1.30;1.20;;;;;;;18.26;78.95;100722.03;5071302;28;20618;-75
2023/05/14 04:46:13;;;;;;;1.42;1.33;;;;;;;18.21;79.56;100710.72;5071620;28;20260;-76
2023/05/14 04:48:39;;;;;;;1.30;1.20;;;;;;;18.60;76.81;100729.72;5037256;28;20252;-76
2023/05/14 04:51:06;;;;;;;1.40;1.30;;;;;;;18.03;78.76;100652.19;5072043;28;20203;-75
2023/05/14 04:53:33;;;;;;;1.23;1.13;;;;;;;18.40;79.24;100731.59;5020310;28;20206;-76
2023/05/14 04:56:00;;;;;;;1.00;1.00;;;;;;;17.86;83.65;100733.63;5014925;28;20215;-76
2023/05/14 04:58:28;;;;;;;1.50;1.40;;;;;;;18.31;91.02;100728.16;5072349;28;20241;-76
2023/05/14 05:00:54;;;;;;;1.42;1.27;;;;;;;18.36;86.57;100701.00;5070718;28;20198;-77
2023/05/14 05:03:22;;;;;;;1.40;1.30;;;;;;;18.33;79.63;100710.63;5071937;28;20202;-79
2023/05/14 05:05:49;;;;;;;1.50;1.30;;;;;;;18.52;81.96;100721.03;5071701;28;20209;-76
2023/05/14 05:08:16;;;;;;;2.00;1.88;;;;;;;19.47;75.77;100721.97;5020182;28;20268;-76
2023/05/14 05:10:43;;;;;;;1.20;1.10;;;;;;;19.52;71.08;100728.03;5071437;28;20214;-76
2023/05/14 05:13:10;;;;;;;1.55;1.30;;;;;;;19.53;71.42;100716.63;5071457;28;20210;-77
2023/05/14 05:15:36;;;;;;;1.83;1.42;;;;;;;20.33;68.05;100722.66;5071745;28;20198;-76
2023/05/14 05:18:03;;;;;;;2.05;1.63;;;;;;;20.31;67.07;100724.41;5071578;28;20219;-76
2023/05/14 05:20:32;;;;;;;1.40;1.30;;;;;;;19.72;67.69;100729.56;5036592;28;20256;-76
2023/05/14 05:22:59;;;;;;;1.48;1.38;;;;;;;19.37;71.45;100728.19;5071543;28;20226;-77
2023/05/14 05:25:25;;;;;;;1.50;1.40;;;;;;;19.98;74.37;100728.34;5071529;28;20217;-76
2023/05/14 05:27:52;;;;;;;1.42;1.33;;;;;;;19.69;70.08;100723.47;5069947;28;20624;-76
2023/05/14 05:30:19;;;;;;;2.08;1.60;;;;;;;19.96;68.99;100727.50;5071462;28;20199;-82
2023/05/14 05:32:46;;;;;;;1.75;1.48;;;;;;;20.28;66.20;100744.66;5071310;28;20548;-76
2023/05/14 05:35:13;;;;;;;1.50;1.35;;;;;;;20.19;62.55;100755.25;5071835;28;20245;-80
2023/05/14 05:37:44;;;;;;;1.52;1.42;;;;;;;20.02;62.65;100764.28;5071646;28;20219;-77
2023/05/14 05:40:12;;;;;;;6.13;1.83;;;;;;;20.29;65.28;100769.25;5046728;28;20222;-81
2023/05/14 05:42:39;;;;;;;6.40;1.88;;;;;;;20.38;60.53;100765.59;5092166;28;20655;-77
2023/05/14 05:45:07;;;;;;;6.55;1.88;;;;;;;19.87;62.28;100759.22;5091961;28;20649;-78
2023/05/14 05:47:34;;;;;;;7.53;1.83;;;;;;;19.61;61.92;100767.41;5088595;28;20206;-76
2023/05/14 05:50:01;;;;;;;7.65;2.10;;;;;;;19.27;61.97;100761.56;5079410;28;20613;-77
2023/05/14 05:52:27;;;;;;;4.32;1.80;;;;;;;19.05;63.63;100754.78;5076825;28;20203;-77
2023/05/14 05:54:56;;;;;;;5.07;1.80;;;;;;;18.77;66.62;100770.75;5091328;28;20201;-77
2023/05/14 05:57:22;;;;;;;4.47;1.67;;;;;;;18.42;65.74;100749.09;5089853;28;20206;-76
2023/05/14 05:59:49;;;;;;;4.03;1.60;;;;;;;18.52;67.75;100781.44;5090725;28;20259;-79
2023/05/14 06:02:16;;;;;;;3.78;1.50;;;;;;;18.86;66.01;100768.94;5080386;28;20217;-76
2023/05/14 06:04:43;;;;;;;4.50;1.73;;;;;;;18.86;65.33;100764.56;5075124;28;20642;-75
2023/05/14 06:07:09;;;;;;;8.50;1.88;;;;;;;18.92;66.28;100787.28;5086781;28;20198;-75
2023/05/14 06:09:36;;;;;;;7.50;1.73;;;;;;;19.05;66.30;100765.31;5083501;28;20227;-80
2023/05/14 06:12:08;;;;;;;11.02;2.15;;;;;;;19.49;63.80;100785.94;5088846;28;20259;-79
2023/05/14 06:14:35;;;;;;;8.60;1.92;;;;;;;19.52;62.28;100788.53;5088985;28;20556;-73
2023/05/14 06:17:02;;;;;;;10.85;2.15;;;;;;;19.38;63.70;100788.66;5089950;28;20354;-74
2023/05/14 06:19:29;;;;;;;8.48;1.95;;;;;;;19.40;61.82;100792.16;5079420;28;20226;-78
2023/05/14 06:21:55;;;;;;;1.30;1.30;;;;;;;19.14;63.78;100789.75;5077350;28;20208;-80
2023/05/14 06:24:22;;;;;;;0.98;0.98;;;;;;;19.53;63.26;100785.03;5083566;28;20194;-82
2023/05/14 06:26:49;;;;;;;0.85;0.85;;;;;;;19.63;62.48;100794.56;5089414;28;20326;-81
2023/05/14 06:29:17;;;;;;;1.00;1.00;;;;;;;19.53;61.97;100785.03;5089936;28;20206;-79
2023/05/14 06:31:44;;;;;;;1.08;1.08;;;;;;;18.91;63.71;100781.16;5090073;28;20198;-75
2023/05/14 06:34:11;;;;;;;1.50;1.40;;;;;;;19.09;64.32;100773.13;5080915;28;20215;-77
2023/05/14 06:36:37;;;;;;;1.50;1.40;;;;;;;19.58;63.29;100776.22;5090613;28;20653;-77
2023/05/14 06:39:04;;;;;;;1.58;1.48;;;;;;;19.64;63.05;100777.91;5088260;28;20229;-77
2023/05/14 06:41:31;;;;;;;0.90;0.90;;;;;;;19.57;62.67;100776.22;5069455;28;20202;-75
2023/05/14 06:43:58;;;;;;;1.02;1.02;;;;;;;19.27;62.50;100769.47;5063030;28;20560;-75
2023/05/14 06:46:26;;;;;;;1.27;1.17;;;;;;;19.38;61.98;100782.50;5063215;28;20336;-75
2023/05/14 06:48:53;;;;;;;1.35;1.25;;;;;;;19.29;62.70;100773.84;5056670;28;20209;-75
2023/05/14 06:51:19;;;;;;;1.58;1.40;;;;;;;19.22;63.20;100776.53;5073734;28;20229;-75
2023/05/14 06:53:47;;;;;;;1.48;1.27;;;;;;;19.02;63.45;100766.19;5073472;28;20633;-78
2023/05/14 06:56:14;;;;;;;1.40;1.30;;;;;;;19.05;62.44;100763.53;5073908;28;20229;-75
2023/05/14 06:58:41;;;;;;;2.13;2.03;;;;;;;19.10;62.07;100781.88;5021863;28;20329;-75
2023/05/14 07:01:08;;;;;;;1.50;1.40;;;;;;;19.20;65.05;100786.19;5061413;28;20226;-76
2023/05/14 07:03:36;;;;;;;1.95;1.85;;;;;;;19.37;67.93;100783.41;5053210;28;20206;-75
2023/05/14 07:06:03;;;;;;;0.90;0.90;;;;;;;19.39;67.78;100786.88;5053409;28;20713;-72
2023/05/14 07:08:29;;;;;;;1.00;1.00;;;;;;;19.38;69.43;100774.63;5067643;28;20214;-72
2023/05/14 07:10:57;;;;;;;1.30;1.23;;;;;;;19.68;69.88;100774.34;5062673;28;20213;-75
2023/05/14 07:13:25;;;;;;;1.23;1.17;;;;;;;19.63;68.71;100755.09;5072663;28;20674;-74
2023/05/14 07:15:51;;;;;;;1.33;1.23;;;;;;;20.15;67.47;100777.28;5060727;28;20225;-77
2023/05/14 07:18:18;;;;;;;1.05;1.05;;;;;;;20.41;63.49;100773.44;5073694;28;20222;-76
2023/05/14 07:20:46;;;;;;;1.00;1.00;;;;;;;20.67;64.47;100766.91;5059189;28;20199;-76
2023/05/14 07:23:13;;;;;;;1.10;1.10;;;;;;;20.95;60.39;100766.47;5073705;28;20209;-75
2023/05/14 07:25:40;;;;;;;1.05;1.05;;;;;;;21.11;60.23;100760.97;5073484;28;20210;-76
2023/05/14 07:28:07;;;;;;;0.90;0.90;;;;;;;21.15;58.32;100764.41;5073716;28;20195;-75
2023/05/14 07:30:33;;;;;;;1.70;1.70;;;;;;;21.54;58.28;100760.19;5073361;28;20195;-75
2023/05/14 07:33:00;;;;;;;0.70;0.70;;;;;;;22.23;56.17;100765.81;5073802;28;20206;-75
2023/05/14 07:35:27;;;;;;;0.77;0.77;;;;;;;22.87;54.17;100767.88;5073625;28;20202;-75
2023/05/14 07:37:55;;;;;;;1.00;1.00;;;;;;;22.63;54.29;100763.16;5073551;28;20206;-76
2023/05/14 07:40:23;;;;;;;1.10;1.10;;;;;;;22.32;54.17;100765.63;5073975;28;20230;-77
2023/05/14 07:42:50;;;;;;;1.27;1.23;;;;;;;22.53;53.66;100765.16;5038492;28;20286;-76
2023/05/14 07:45:17;;;;;;;1.00;1.00;;;;;;;22.39;52.33;100687.09;5073560;28;20202;-76
2023/05/14 07:47:44;;;;;;;0.80;0.80;;;;;;;23.04;50.46;100768.38;5073535;28;20199;-75
2023/05/14 07:50:11;;;;;;;1.00;1.00;;;;;;;23.19;51.23;100762.66;5073554;28;20199;-79
2023/05/14 07:52:38;;;;;;;0.75;0.75;;;;;;;23.42;50.42;100761.22;5072301;28;20577;-76
2023/05/14 07:55:07;;;;;;;1.00;1.00;;;;;;;23.75;50.17;100754.16;5036813;28;20202;-76
2023/05/14 07:57:34;;;;;;;1.00;1.00;;;;;;;22.93;50.50;100733.38;5068751;28;20191;-76
2023/05/14 08:00:01;;;;;;;1.40;1.30;;;;;;;22.79;49.91;100743.44;5072465;28;20225;-75
2023/05/14 08:02:28;;;;;;;1.23;1.23;;;;;;;23.08;47.97;100746.19;5073038;28;20217;-76
2023/05/14 08:04:55;;;;;;;1.10;1.10;;;;;;;23.22;44.69;100707.00;5070277;28;20205;-75
2023/05/14 08:07:22;;;;;;;0.70;0.70;;;;;;;23.82;42.51;100737.16;5055224;28;20663;-75
2023/05/14 08:09:48;;;;;;;0.90;0.90;;;;;;;23.07;43.30;100749.75;5065585;28;20206;-75
2023/05/14 08:12:17;;;;;;;1.10;1.10;;;;;;;22.71;43.02;100748.91;5060990;28;20215;-75
2023/05/14 08:14:43;;;;;;;1.05;1.05;;;;;;;22.46;43.23;100747.69;5061288;28;20298;-75
2023/05/14 08:17:10;;;;;;;0.90;0.90;;;;;;;23.28;42.04;100750.09;5067575;28;20663;-77
2023/05/14 08:19:37;;;;;;;1.00;1.00;;;;;;;23.25;41.50;100729.03;5052972;28;20314;-75
2023/05/14 08:22:04;;;;;;;0.90;0.90;;;;;;;23.32;42.01;100757.94;5053516;28;20651;-76
2023/05/14 08:24:31;;;;;;;0.80;0.80;;;;;;;22.85;42.22;100753.84;5054172;28;20666;-75
2023/05/14 08:26:58;;;;;;;1.08;1.08;;;;;;;23.48;41.46;100761.06;5072499;28;20579;-76
2023/05/14 08:29:26;;;;;;;0.85;0.85;;;;;;;23.93;41.47;100762.44;5073053;28;20590;-76
2023/05/14 08:31:53;;;;;;;1.25;1.25;;;;;;;24.11;40.81;100777.78;5072851;28;20199;-76
2023/05/14 08:34:21;;;;;;;1.45;1.35;;;;;;;24.10;40.63;100760.16;5072177;28;20188;-76
2023/05/14 08:36:47;;;;;;;1.67;1.52;;;;;;;23.65;41.58;100753.53;5072470;28;20202;-79
2023/05/14 08:39:14;;;;;;;1.50;1.40;;;;;;;23.79;40.76;100763.75;5072007;28;20626;-74
2023/05/14 08:41:41;;;;;;;1.35;1.23;;;;;;;23.27;41.84;100761.59;5072145;28;20222;-77
2023/05/14 08:44:13;;;;;;;1.15;1.10;;;;;;;22.94;43.10;100761.53;5069485;28;20230;-74
2023/05/14 08:46:41;;;;;;;3.00;1.60;;;;;;;23.33;42.78;100754.34;5072237;28;20201;-74
2023/05/14 08:49:22;;;;;;;2.28;1.60;;;;;;;23.47;42.95;100756.69;5061435;28;20207;-81
2023/05/14 08:51:49;;;;;;;3.90;1.70;;;;;;;23.27;42.81;100740.41;5052572;28;20227;-76
2023/05/14 08:54:16;;;;;;;2.78;1.60;;;;;;;23.03;42.50;100756.03;5055000;28;20207;-77
2023/05/14 08:56:45;;;;;;;1.67;1.48;;;;;;;23.37;41.95;100753.38;5072231;28;20233;-78
2023/05/14 08:59:12;;;;;;;2.28;2.08;;;;;;;22.98;42.89;100752.63;5072047;28;20313;-74
2023/05/14 09:01:39;;;;;;;1.45;1.35;;;;;;;23.03;42.85;100756.03;5071085;28;20681;-76
2023/05/14 09:04:09;;;;;;;2.42;1.80;;;;;;;22.82;42.04;100746.00;5070813;28;20647;-74
2023/05/14 09:06:37;;;;;;;1.40;1.30;;;;;;;23.17;41.82;100729.22;5070609;28;20199;-75
2023/05/14 09:09:04;;;;;;;1.70;1.60;;;;;;;23.22;41.85;100757.28;5051327;28;20231;-75
2023/05/14 09:11:31;;;;;;;1.73;1.55;;;;;;;23.29;42.44;100735.97;5051317;28;20605;-74
2023/05/14 09:13:58;;;;;;;1.75;1.33;;;;;;;23.79;43.13;100754.03;5053408;28;20203;-78
2023/05/14 09:16:26;;;;;;;1.95;1.40;;;;;;;23.92;41.71;100758.06;5071220;28;20264;-79
2023/05/14 09:18:52;;;;;;;1.55;1.33;;;;;;;24.61;41.21;100741.78;5071185;28;20230;-77
2023/05/14 09:21:21;;;;;;;1.90;1.48;;;;;;;24.09;41.04;100752.25;5071564;28;20256;-75
2023/05/14 09:23:53;;;;;;;2.50;1.95;;;;;;;23.56;41.07;100688.47;5070910;28;20676;-77
2023/05/14 09:26:23;;;;;;;1.38;1.27;;;;;;;23.76;40.83;100769.97;5071190;28;20646;-78
2023/05/14 09:28:54;;;;;;;2.08;1.63;;;;;;;23.87;41.35;100770.53;5069673;28;20596;-75
2023/05/14 09:31:22;;;;;;;2.20;1.65;;;;;;;23.58;42.16;100778.47;5070972;28;20354;-72
2023/05/14 09:33:51;;;;;;;2.53;1.55;;;;;;;22.92;43.11;100768.66;5018953;28;20206;-73
2023/05/14 09:36:18;;;;;;;1.88;1.40;;;;;;;23.34;42.70;100768.47;5070958;28;20289;-76
2023/05/14 09:38:46;;;;;;;2.20;1.40;;;;;;;23.28;42.96;100755.41;5062907;28;20218;-79
2023/05/14 09:41:13;;;;;;;3.63;1.67;;;;;;;23.14;42.04;100767.22;5069217;28;20226;-76
2023/05/14 09:43:39;;;;;;;3.95;1.88;;;;;;;23.08;42.36;100758.56;5063108;28;20211;-76
2023/05/14 09:46:07;;;;;;;3.67;1.70;;;;;;;22.47;43.17;100761.78;5053863;28;20194;-80
2023/05/14 09:48:37;;;;;;;2.60;1.48;;;;;;;22.90;42.71;100764.31;5064574;28;20195;-78
2023/05/14 09:51:04;;;;;;;3.75;1.60;;;;;;;23.03;42.66;100763.97;5057134;28;20198;-76
2023/05/14 09:53:32;;;;;;;2.42;1.40;;;;;;;23.22;42.29;100757.28;5066322;28;20294;-77
2023/05/14 09:56:01;;;;;;;4.45;1.98;;;;;;;23.23;42.47;100758.16;5067427;28;20203;-76
2023/05/14 09:58:28;;;;;;;3.72;1.50;;;;;;;22.99;43.28;100757.00;5067996;28;20217;-75
2023/05/14 10:00:57;;;;;;;4.03;1.70;;;;;;;22.90;43.77;100749.28;5070266;28;20418;-78
2023/05/14 10:03:26;;;;;;;4.13;1.67;;;;;;;22.96;43.28;100743.00;5069676;28;20218;-77
2023/05/14 10:05:55;;;;;;;3.80;1.60;;;;;;;23.14;43.57;100738.13;5069423;28;20222;-76
2023/05/14 10:08:25;;;;;;;4.47;1.75;;;;;;;23.54;43.12;100731.78;5070186;28;20210;-76
2023/05/14 10:10:54;;;;;;;3.90;1.88;;;;;;;22.56;43.98;100732.47;5069987;28;20190;-78
2023/05/14 10:13:28;;;;;;;2.72;1.50;;;;;;;23.41;43.27;100727.69;5069646;28;20256;-75
2023/05/14 10:16:01;;;;;;;4.78;1.70;;;;;;;23.06;43.59;100707.47;5069419;28;20195;-77
2023/05/14 10:18:31;;;;;;;3.53;1.52;;;;;;;22.74;44.29;100705.63;5015443;28;20282;-78
2023/05/14 10:21:05;;;;;;;4.82;1.90;;;;;;;23.38;43.90;100709.25;5028143;28;20203;-75
2023/05/14 10:23:32;;;;;;;14.02;2.35;;;;;;;23.29;43.11;100701.56;5066236;28;20268;-75
2023/05/14 10:26:00;;;;;;;4.38;1.75;;;;;;;23.40;42.74;100707.44;5066607;28;20275;-81
2023/05/14 10:28:28;;;;;;;3.90;1.70;;;;;;;23.18;42.35;100702.72;5047203;28;20230;-80
2023/05/14 10:30:55;;;;;;;3.92;1.58;;;;;;;23.49;41.61;100696.63;5020277;28;20211;-83
2023/05/14 10:33:22;;;;;;;4.53;1.75;;;;;;;23.38;41.50;100661.59;5052591;28;20206;-82
2023/05/14 10:36:00;;;;;;;5.43;1.90;;;;;;;23.69;41.42;100679.25;5065231;28;20206;-84
2023/05/14 10:38:28;;;;;;;5.32;1.73;;;;;;;23.81;42.71;100672.72;5055210;28;20249;-78
2023/05/14 10:41:06;;;;;;;7.60;2.00;;;;;;;23.80;40.91;100652.44;5063858;28;20292;-84
2023/05/14 10:43:37;;;;;;;7.35;1.88;;;;;;;23.42;41.65;100661.50;5058289;28;20575;-83
2023/05/14 10:46:05;;;;;;;6.97;1.67;;;;;;;23.45;40.54;100657.91;5064643;28;20199;-81
2023/05/14 10:48:33;;;;;;;7.45;1.63;;;;;;;23.33;41.97;100658.22;5069075;28;20198;-85
2023/05/14 10:51:01;;;;;;;11.38;2.17;;;;;;;23.35;42.41;100643.16;5069898;28;20605;-86
2023/05/14 10:53:33;;;;;;;6.40;1.60;;;;;;;23.32;41.23;100646.78;5070536;28;20202;-89
2023/05/14 10:56:04;;;;;;;8.98;2.05;;;;;;;23.63;41.05;100610.59;5071933;28;20199;-87
2023/05/14 10:58:33;;;;;;;7.43;1.92;;;;;;;23.86;41.18;100646.97;5070886;28;20199;-87
2023/05/14 11:01:01;;;;;;;9.50;2.22;;;;;;;24.00;40.75;100652.72;5034553;28;20317;-89
2023/05/14 11:03:30;;;;;;;5.75;1.65;;;;;;;24.45;39.80;100647.75;5066508;28;20207;-85
2023/05/14 11:05:57;;;;;;;7.93;1.95;;;;;;;24.66;40.97;100651.47;5050321;28;20208;-80
2023/05/14 11:08:26;;;;;;;10.52;2.00;;;;;;;24.13;40.84;100632.91;5052312;28;20203;-83
2023/05/14 11:10:55;;;;;;;10.95;2.10;;;;;;;24.88;40.00;100664.91;5061590;28;20858;-80
2023/05/14 11:13:21;;;;;;;7.28;1.80;;;;;;;24.86;39.36;100657.03;5062788;28;20214;-79
2023/05/14 11:15:49;;;;;;;6.90;1.58;;;;;;;24.66;40.45;100601.09;5068833;28;20684;-78
2023/05/14 11:18:28;;;;;;;7.35;1.83;;;;;;;25.02;40.57;100655.56;5063496;28;20210;-77
2023/05/14 11:20:58;;;;;;;7.70;1.88;;;;;;;24.98;39.96;100631.81;5068645;28;20254;-78
2023/05/14 11:23:25;;;;;;;6.07;1.65;;;;;;;25.09;39.17;100638.50;5063117;28;20215;-77